sensor_id;sensor_type;location;lat;lon;timestamp;temperature;humidity
32524;DHT22;18965;52.242;20.886;2023-04-16T00:01:34;11.00;79.60
32524;DHT22;18965;52.242;20.886;2023-04-16T00:03:59;11.00;79.60
32524;DHT22;18965;52.242;20.886;2023-04-16T00:06:25;11.00;79.80
32524;DHT22;18965;52.242;20.886;2023-04-16T00:08:52;11.00;79.70
32524;DHT22;18965;52.242;20.886;2023-04-16T00:11:17;11.00;79.70
32524;DHT22;18965;52.242;20.886;2023-04-16T00:13:43;11.00;79.70
32524;DHT22;18965;52.242;20.886;2023-04-16T00:16:08;11.00;79.70
32524;DHT22;18965;52.242;20.886;2023-04-16T00:18:34;11.00;79.70
32524;DHT22;18965;52.242;20.886;2023-04-16T00:21:00;11.00;79.80
32524;DHT22;18965;52.242;20.886;2023-04-16T00:23:26;11.00;79.90
32524;DHT22;18965;52.242;20.886;2023-04-16T00:25:51;11.00;79.90
32524;DHT22;18965;52.242;20.886;2023-04-16T00:28:18;11.00;79.90
32524;DHT22;18965;52.242;20.886;2023-04-16T00:30:44;11.00;79.90
32524;DHT22;18965;52.242;20.886;2023-04-16T00:33:09;11.00;80.00
32524;DHT22;18965;52.242;20.886;2023-04-16T00:35:35;11.00;80.00
32524;DHT22;18965;52.242;20.886;2023-04-16T00:38:01;11.00;80.80
32524;DHT22;18965;52.242;20.886;2023-04-16T00:40:27;11.00;80.00
32524;DHT22;18965;52.242;20.886;2023-04-16T00:42:53;11.00;80.00
32524;DHT22;18965;52.242;20.886;2023-04-16T00:45:19;11.00;80.00
32524;DHT22;18965;52.242;20.886;2023-04-16T00:47:45;11.00;79.90
32524;DHT22;18965;52.242;20.886;2023-04-16T00:50:11;11.00;79.90
32524;DHT22;18965;52.242;20.886;2023-04-16T00:52:37;11.00;80.00
32524;DHT22;18965;52.242;20.886;2023-04-16T00:55:05;11.00;80.00
32524;DHT22;18965;52.242;20.886;2023-04-16T00:57:31;10.90;80.00
32524;DHT22;18965;52.242;20.886;2023-04-16T00:59:57;10.90;80.10
32524;DHT22;18965;52.242;20.886;2023-04-16T01:02:23;10.90;80.10
32524;DHT22;18965;52.242;20.886;2023-04-16T01:04:50;10.90;80.20
32524;DHT22;18965;52.242;20.886;2023-04-16T01:07:16;10.90;80.10
32524;DHT22;18965;52.242;20.886;2023-04-16T01:09:42;10.80;80.30
32524;DHT22;18965;52.242;20.886;2023-04-16T01:12:07;10.80;80.30
32524;DHT22;18965;52.242;20.886;2023-04-16T01:14:33;10.80;80.30
32524;DHT22;18965;52.242;20.886;2023-04-16T01:17:01;10.70;80.40
32524;DHT22;18965;52.242;20.886;2023-04-16T01:19:28;10.70;80.40
32524;DHT22;18965;52.242;20.886;2023-04-16T01:21:56;10.70;80.50
32524;DHT22;18965;52.242;20.886;2023-04-16T01:24:22;10.70;80.50
32524;DHT22;18965;52.242;20.886;2023-04-16T01:26:48;10.70;80.60
32524;DHT22;18965;52.242;20.886;2023-04-16T01:29:13;10.70;80.70
32524;DHT22;18965;52.242;20.886;2023-04-16T01:31:39;10.70;80.60
32524;DHT22;18965;52.242;20.886;2023-04-16T01:34:05;10.70;80.70
32524;DHT22;18965;52.242;20.886;2023-04-16T01:36:31;10.60;80.70
32524;DHT22;18965;52.242;20.886;2023-04-16T01:38:56;10.60;80.90
32524;DHT22;18965;52.242;20.886;2023-04-16T01:41:22;10.60;80.90
32524;DHT22;18965;52.242;20.886;2023-04-16T01:43:48;10.60;80.80
32524;DHT22;18965;52.242;20.886;2023-04-16T01:46:27;10.60;80.90
32524;DHT22;18965;52.242;20.886;2023-04-16T01:48:56;10.60;81.00
32524;DHT22;18965;52.242;20.886;2023-04-16T01:51:22;10.60;81.00
32524;DHT22;18965;52.242;20.886;2023-04-16T01:53:50;10.60;81.10
32524;DHT22;18965;52.242;20.886;2023-04-16T01:56:16;10.60;81.10
32524;DHT22;18965;52.242;20.886;2023-04-16T01:58:42;10.60;81.00
32524;DHT22;18965;52.242;20.886;2023-04-16T02:01:08;10.60;81.00
32524;DHT22;18965;52.242;20.886;2023-04-16T02:03:34;10.60;81.00
32524;DHT22;18965;52.242;20.886;2023-04-16T02:06:00;10.60;81.40
32524;DHT22;18965;52.242;20.886;2023-04-16T02:08:26;10.60;81.10
32524;DHT22;18965;52.242;20.886;2023-04-16T02:10:52;10.60;81.10
32524;DHT22;18965;52.242;20.886;2023-04-16T02:13:18;10.60;81.10
32524;DHT22;18965;52.242;20.886;2023-04-16T02:15:48;10.60;81.20
32524;DHT22;18965;52.242;20.886;2023-04-16T02:18:14;10.60;81.30
32524;DHT22;18965;52.242;20.886;2023-04-16T02:20:44;10.60;81.30
32524;DHT22;18965;52.242;20.886;2023-04-16T02:23:10;10.60;81.40
32524;DHT22;18965;52.242;20.886;2023-04-16T02:25:40;10.60;81.30
32524;DHT22;18965;52.242;20.886;2023-04-16T02:28:07;10.60;81.30
32524;DHT22;18965;52.242;20.886;2023-04-16T02:30:34;10.60;81.40
32524;DHT22;18965;52.242;20.886;2023-04-16T02:33:01;10.60;81.30
32524;DHT22;18965;52.242;20.886;2023-04-16T02:35:29;10.60;81.30
32524;DHT22;18965;52.242;20.886;2023-04-16T02:37:55;10.60;81.40
32524;DHT22;18965;52.242;20.886;2023-04-16T02:40:21;10.60;81.50
32524;DHT22;18965;52.242;20.886;2023-04-16T02:42:46;10.60;81.40
32524;DHT22;18965;52.242;20.886;2023-04-16T02:45:12;10.60;81.50
32524;DHT22;18965;52.242;20.886;2023-04-16T02:47:38;10.60;81.50
32524;DHT22;18965;52.242;20.886;2023-04-16T02:50:04;10.60;81.40
32524;DHT22;18965;52.242;20.886;2023-04-16T02:52:30;10.60;81.40
32524;DHT22;18965;52.242;20.886;2023-04-16T02:54:57;10.60;81.30
32524;DHT22;18965;52.242;20.886;2023-04-16T02:57:22;10.60;81.20
32524;DHT22;18965;52.242;20.886;2023-04-16T02:59:48;10.60;81.30
32524;DHT22;18965;52.242;20.886;2023-04-16T03:02:14;10.60;81.30
32524;DHT22;18965;52.242;20.886;2023-04-16T03:04:40;10.60;81.30
32524;DHT22;18965;52.242;20.886;2023-04-16T03:07:06;10.60;81.40
32524;DHT22;18965;52.242;20.886;2023-04-16T03:09:33;10.60;81.30
32524;DHT22;18965;52.242;20.886;2023-04-16T03:12:00;10.60;81.20
32524;DHT22;18965;52.242;20.886;2023-04-16T03:14:27;10.60;81.20
32524;DHT22;18965;52.242;20.886;2023-04-16T03:16:52;10.60;81.20
32524;DHT22;18965;52.242;20.886;2023-04-16T03:19:18;10.50;81.30
32524;DHT22;18965;52.242;20.886;2023-04-16T03:21:44;10.50;81.30
32524;DHT22;18965;52.242;20.886;2023-04-16T03:24:09;10.50;81.40
32524;DHT22;18965;52.242;20.886;2023-04-16T03:26:35;10.50;81.40
32524;DHT22;18965;52.242;20.886;2023-04-16T03:29:01;10.50;81.40
32524;DHT22;18965;52.242;20.886;2023-04-16T03:31:27;10.50;81.50
32524;DHT22;18965;52.242;20.886;2023-04-16T03:33:53;10.50;81.60
32524;DHT22;18965;52.242;20.886;2023-04-16T03:36:18;10.50;81.50
32524;DHT22;18965;52.242;20.886;2023-04-16T03:38:44;10.50;81.40
32524;DHT22;18965;52.242;20.886;2023-04-16T03:41:10;10.50;81.70
32524;DHT22;18965;52.242;20.886;2023-04-16T03:43:36;10.50;81.80
32524;DHT22;18965;52.242;20.886;2023-04-16T03:46:01;10.50;81.70
32524;DHT22;18965;52.242;20.886;2023-04-16T03:48:27;10.50;81.70
32524;DHT22;18965;52.242;20.886;2023-04-16T03:50:53;10.60;81.70
32524;DHT22;18965;52.242;20.886;2023-04-16T03:53:18;10.60;81.80
32524;DHT22;18965;52.242;20.886;2023-04-16T03:55:44;10.60;81.70
32524;DHT22;18965;52.242;20.886;2023-04-16T03:58:15;10.60;81.60
32524;DHT22;18965;52.242;20.886;2023-04-16T04:00:41;10.60;81.60
32524;DHT22;18965;52.242;20.886;2023-04-16T04:03:08;10.60;81.70
32524;DHT22;18965;52.242;20.886;2023-04-16T04:05:38;10.60;81.70
32524;DHT22;18965;52.242;20.886;2023-04-16T04:08:04;10.60;81.70
32524;DHT22;18965;52.242;20.886;2023-04-16T04:10:34;10.60;81.60
32524;DHT22;18965;52.242;20.886;2023-04-16T04:13:02;10.60;81.60
32524;DHT22;18965;52.242;20.886;2023-04-16T04:15:28;10.60;81.60
32524;DHT22;18965;52.242;20.886;2023-04-16T04:17:54;10.60;81.70
32524;DHT22;18965;52.242;20.886;2023-04-16T04:20:20;10.60;81.70
32524;DHT22;18965;52.242;20.886;2023-04-16T04:22:46;10.60;81.70
32524;DHT22;18965;52.242;20.886;2023-04-16T04:25:11;10.60;81.80
32524;DHT22;18965;52.242;20.886;2023-04-16T04:27:37;10.60;82.40
32524;DHT22;18965;52.242;20.886;2023-04-16T04:30:04;10.60;81.70
32524;DHT22;18965;52.242;20.886;2023-04-16T04:32:30;10.70;81.80
32524;DHT22;18965;52.242;20.886;2023-04-16T04:34:56;10.70;81.80
32524;DHT22;18965;52.242;20.886;2023-04-16T04:37:21;10.70;81.80
32524;DHT22;18965;52.242;20.886;2023-04-16T04:39:47;10.70;81.70
32524;DHT22;18965;52.242;20.886;2023-04-16T04:42:15;10.70;81.60
32524;DHT22;18965;52.242;20.886;2023-04-16T04:44:41;10.80;81.60
32524;DHT22;18965;52.242;20.886;2023-04-16T04:47:06;10.80;81.70
32524;DHT22;18965;52.242;20.886;2023-04-16T04:49:32;10.80;81.60
32524;DHT22;18965;52.242;20.886;2023-04-16T04:51:58;10.90;81.70
32524;DHT22;18965;52.242;20.886;2023-04-16T04:54:23;11.00;81.60
32524;DHT22;18965;52.242;20.886;2023-04-16T04:56:49;11.00;81.50
32524;DHT22;18965;52.242;20.886;2023-04-16T04:59:16;11.10;81.50
32524;DHT22;18965;52.242;20.886;2023-04-16T05:01:42;11.10;81.20
32524;DHT22;18965;52.242;20.886;2023-04-16T05:04:08;11.10;81.10
32524;DHT22;18965;52.242;20.886;2023-04-16T05:06:33;11.20;81.10
32524;DHT22;18965;52.242;20.886;2023-04-16T05:08:59;11.20;80.90
32524;DHT22;18965;52.242;20.886;2023-04-16T05:11:25;11.30;81.00
32524;DHT22;18965;52.242;20.886;2023-04-16T05:13:51;11.30;80.90
32524;DHT22;18965;52.242;20.886;2023-04-16T05:16:16;11.40;81.00
32524;DHT22;18965;52.242;20.886;2023-04-16T05:18:42;11.40;80.80
32524;DHT22;18965;52.242;20.886;2023-04-16T05:21:08;11.50;80.80
32524;DHT22;18965;52.242;20.886;2023-04-16T05:23:33;11.50;80.60
32524;DHT22;18965;52.242;20.886;2023-04-16T05:25:59;11.60;80.30
32524;DHT22;18965;52.242;20.886;2023-04-16T05:28:25;11.60;80.00
32524;DHT22;18965;52.242;20.886;2023-04-16T05:30:50;11.60;80.00
32524;DHT22;18965;52.242;20.886;2023-04-16T05:33:16;11.70;79.90
32524;DHT22;18965;52.242;20.886;2023-04-16T05:35:42;11.70;80.00
32524;DHT22;18965;52.242;20.886;2023-04-16T05:38:07;11.80;79.90
32524;DHT22;18965;52.242;20.886;2023-04-16T05:40:33;11.80;79.80
32524;DHT22;18965;52.242;20.886;2023-04-16T05:42:59;11.80;79.70
32524;DHT22;18965;52.242;20.886;2023-04-16T05:45:24;11.80;79.30
32524;DHT22;18965;52.242;20.886;2023-04-16T05:47:50;11.80;79.20
32524;DHT22;18965;52.242;20.886;2023-04-16T05:50:16;11.90;79.20
32524;DHT22;18965;52.242;20.886;2023-04-16T05:52:41;11.90;79.10
32524;DHT22;18965;52.242;20.886;2023-04-16T05:55:07;11.90;79.20
32524;DHT22;18965;52.242;20.886;2023-04-16T05:57:33;12.00;79.20
32524;DHT22;18965;52.242;20.886;2023-04-16T05:59:59;12.10;78.80
32524;DHT22;18965;52.242;20.886;2023-04-16T06:02:24;12.10;78.50
32524;DHT22;18965;52.242;20.886;2023-04-16T06:04:50;12.10;78.30
32524;DHT22;18965;52.242;20.886;2023-04-16T06:07:16;12.10;77.90
32524;DHT22;18965;52.242;20.886;2023-04-16T06:09:41;12.10;77.60
32524;DHT22;18965;52.242;20.886;2023-04-16T06:12:07;12.10;77.60
32524;DHT22;18965;52.242;20.886;2023-04-16T06:14:33;12.10;77.70
32524;DHT22;18965;52.242;20.886;2023-04-16T06:16:58;12.10;77.50
32524;DHT22;18965;52.242;20.886;2023-04-16T06:19:24;12.20;77.50
32524;DHT22;18965;52.242;20.886;2023-04-16T06:21:50;12.20;77.30
32524;DHT22;18965;52.242;20.886;2023-04-16T06:24:15;12.20;77.20
32524;DHT22;18965;52.242;20.886;2023-04-16T06:26:43;12.30;77.30
32524;DHT22;18965;52.242;20.886;2023-04-16T06:29:08;12.40;77.40
32524;DHT22;18965;52.242;20.886;2023-04-16T06:31:34;12.40;77.20
32524;DHT22;18965;52.242;20.886;2023-04-16T06:34:00;12.50;77.20
32524;DHT22;18965;52.242;20.886;2023-04-16T06:36:26;12.50;76.80
32524;DHT22;18965;52.242;20.886;2023-04-16T06:38:53;12.60;76.70
32524;DHT22;18965;52.242;20.886;2023-04-16T06:41:19;12.60;77.20
32524;DHT22;18965;52.242;20.886;2023-04-16T06:43:45;12.60;76.20
32524;DHT22;18965;52.242;20.886;2023-04-16T06:46:11;12.60;76.00
32524;DHT22;18965;52.242;20.886;2023-04-16T06:48:37;12.60;76.10
32524;DHT22;18965;52.242;20.886;2023-04-16T06:51:03;12.70;76.10
32524;DHT22;18965;52.242;20.886;2023-04-16T06:53:28;12.70;76.20
32524;DHT22;18965;52.242;20.886;2023-04-16T06:55:54;12.70;76.00
32524;DHT22;18965;52.242;20.886;2023-04-16T06:58:20;12.80;75.80
32524;DHT22;18965;52.242;20.886;2023-04-16T07:00:46;12.80;75.70
32524;DHT22;18965;52.242;20.886;2023-04-16T07:03:12;12.80;75.70
32524;DHT22;18965;52.242;20.886;2023-04-16T07:05:38;12.90;75.10
32524;DHT22;18965;52.242;20.886;2023-04-16T07:08:04;12.90;74.70
32524;DHT22;18965;52.242;20.886;2023-04-16T07:10:30;12.90;74.30
32524;DHT22;18965;52.242;20.886;2023-04-16T07:12:56;12.90;74.20
32524;DHT22;18965;52.242;20.886;2023-04-16T07:15:22;12.90;74.10
32524;DHT22;18965;52.242;20.886;2023-04-16T07:17:47;13.00;73.70
32524;DHT22;18965;52.242;20.886;2023-04-16T07:20:13;13.00;73.80
32524;DHT22;18965;52.242;20.886;2023-04-16T07:22:39;13.00;73.30
32524;DHT22;18965;52.242;20.886;2023-04-16T07:25:05;12.90;73.40
32524;DHT22;18965;52.242;20.886;2023-04-16T07:27:30;13.00;73.70
32524;DHT22;18965;52.242;20.886;2023-04-16T07:29:56;13.00;73.80
32524;DHT22;18965;52.242;20.886;2023-04-16T07:32:22;13.00;73.30
32524;DHT22;18965;52.242;20.886;2023-04-16T07:34:48;13.00;73.10
32524;DHT22;18965;52.242;20.886;2023-04-16T07:37:13;13.00;73.00
32524;DHT22;18965;52.242;20.886;2023-04-16T07:39:41;13.00;73.00
32524;DHT22;18965;52.242;20.886;2023-04-16T07:42:06;13.00;73.10
32524;DHT22;18965;52.242;20.886;2023-04-16T07:44:32;13.00;73.30
32524;DHT22;18965;52.242;20.886;2023-04-16T07:46:58;13.10;73.00
32524;DHT22;18965;52.242;20.886;2023-04-16T07:49:23;13.10;72.90
32524;DHT22;18965;52.242;20.886;2023-04-16T07:51:49;13.10;73.00
32524;DHT22;18965;52.242;20.886;2023-04-16T07:54:15;13.20;73.00
32524;DHT22;18965;52.242;20.886;2023-04-16T07:56:40;13.10;72.80
32524;DHT22;18965;52.242;20.886;2023-04-16T07:59:06;13.10;72.70
32524;DHT22;18965;52.242;20.886;2023-04-16T08:01:32;13.10;72.80
32524;DHT22;18965;52.242;20.886;2023-04-16T08:03:57;13.20;72.80
32524;DHT22;18965;52.242;20.886;2023-04-16T08:09:46;13.30;72.80
32524;DHT22;18965;52.242;20.886;2023-04-16T08:12:13;13.30;72.90
32524;DHT22;18965;52.242;20.886;2023-04-16T08:14:38;13.30;72.90
32524;DHT22;18965;52.242;20.886;2023-04-16T08:17:05;13.30;72.30
32524;DHT22;18965;52.242;20.886;2023-04-16T08:19:31;13.30;72.30
32524;DHT22;18965;52.242;20.886;2023-04-16T08:21:56;13.40;72.40
32524;DHT22;18965;52.242;20.886;2023-04-16T08:24:22;13.30;72.10
32524;DHT22;18965;52.242;20.886;2023-04-16T08:26:48;13.40;72.10
32524;DHT22;18965;52.242;20.886;2023-04-16T08:29:13;13.30;72.10
32524;DHT22;18965;52.242;20.886;2023-04-16T08:31:40;13.40;72.00
32524;DHT22;18965;52.242;20.886;2023-04-16T08:34:06;13.40;71.90
32524;DHT22;18965;52.242;20.886;2023-04-16T08:36:31;13.40;72.00
32524;DHT22;18965;52.242;20.886;2023-04-16T08:38:57;13.40;72.00
32524;DHT22;18965;52.242;20.886;2023-04-16T08:41:23;13.40;71.90
32524;DHT22;18965;52.242;20.886;2023-04-16T08:43:49;13.50;72.10
32524;DHT22;18965;52.242;20.886;2023-04-16T08:46:18;13.50;72.00
32524;DHT22;18965;52.242;20.886;2023-04-16T08:48:48;13.50;72.00
32524;DHT22;18965;52.242;20.886;2023-04-16T08:51:16;13.60;72.30
32524;DHT22;18965;52.242;20.886;2023-04-16T08:53:53;13.60;72.40
32524;DHT22;18965;52.242;20.886;2023-04-16T08:56:23;13.80;72.30
32524;DHT22;18965;52.242;20.886;2023-04-16T08:58:50;13.90;72.10
32524;DHT22;18965;52.242;20.886;2023-04-16T09:01:19;14.00;71.90
32524;DHT22;18965;52.242;20.886;2023-04-16T09:03:48;14.10;71.30
32524;DHT22;18965;52.242;20.886;2023-04-16T09:06:15;14.30;71.10
32524;DHT22;18965;52.242;20.886;2023-04-16T09:08:45;14.40;70.90
32524;DHT22;18965;52.242;20.886;2023-04-16T09:11:13;14.50;70.80
32524;DHT22;18965;52.242;20.886;2023-04-16T09:13:41;14.60;70.10
32524;DHT22;18965;52.242;20.886;2023-04-16T09:16:07;14.70;69.70
32524;DHT22;18965;52.242;20.886;2023-04-16T09:18:33;14.80;69.40
32524;DHT22;18965;52.242;20.886;2023-04-16T09:21:00;14.90;69.20
32524;DHT22;18965;52.242;20.886;2023-04-16T09:23:25;15.00;68.90
32524;DHT22;18965;52.242;20.886;2023-04-16T09:25:51;15.00;68.50
32524;DHT22;18965;52.242;20.886;2023-04-16T09:28:39;15.10;68.50
32524;DHT22;18965;52.242;20.886;2023-04-16T09:31:23;15.30;68.00
32524;DHT22;18965;52.242;20.886;2023-04-16T09:34:08;15.30;67.90
32524;DHT22;18965;52.242;20.886;2023-04-16T09:36:35;15.30;67.50
32524;DHT22;18965;52.242;20.886;2023-04-16T09:39:01;15.40;67.80
32524;DHT22;18965;52.242;20.886;2023-04-16T09:41:30;15.40;67.40
32524;DHT22;18965;52.242;20.886;2023-04-16T09:44:00;15.40;67.40
32524;DHT22;18965;52.242;20.886;2023-04-16T09:46:40;15.40;67.30
32524;DHT22;18965;52.242;20.886;2023-04-16T09:49:12;15.50;66.60
32524;DHT22;18965;52.242;20.886;2023-04-16T09:51:43;15.50;66.60
32524;DHT22;18965;52.242;20.886;2023-04-16T09:54:09;15.50;66.30
32524;DHT22;18965;52.242;20.886;2023-04-16T09:56:43;15.50;66.50
32524;DHT22;18965;52.242;20.886;2023-04-16T09:59:19;15.50;66.40
32524;DHT22;18965;52.242;20.886;2023-04-16T10:01:45;15.50;67.20
32524;DHT22;18965;52.242;20.886;2023-04-16T10:04:11;15.60;66.70
32524;DHT22;18965;52.242;20.886;2023-04-16T10:06:37;15.70;66.40
32524;DHT22;18965;52.242;20.886;2023-04-16T10:09:06;15.70;65.60
32524;DHT22;18965;52.242;20.886;2023-04-16T10:11:33;15.70;65.40
32524;DHT22;18965;52.242;20.886;2023-04-16T10:13:59;15.70;65.10
32524;DHT22;18965;52.242;20.886;2023-04-16T10:16:26;15.80;65.50
32524;DHT22;18965;52.242;20.886;2023-04-16T10:18:52;15.80;65.50
32524;DHT22;18965;52.242;20.886;2023-04-16T10:21:18;15.80;65.10
32524;DHT22;18965;52.242;20.886;2023-04-16T10:23:44;15.80;65.10
32524;DHT22;18965;52.242;20.886;2023-04-16T10:26:10;15.80;64.70
32524;DHT22;18965;52.242;20.886;2023-04-16T10:28:36;15.70;63.90
32524;DHT22;18965;52.242;20.886;2023-04-16T10:31:04;15.60;63.90
32524;DHT22;18965;52.242;20.886;2023-04-16T10:33:39;15.50;63.70
32524;DHT22;18965;52.242;20.886;2023-04-16T10:36:13;15.40;63.90
32524;DHT22;18965;52.242;20.886;2023-04-16T10:38:47;15.20;64.30
32524;DHT22;18965;52.242;20.886;2023-04-16T10:41:13;15.20;64.40
32524;DHT22;18965;52.242;20.886;2023-04-16T10:43:44;15.10;64.80
32524;DHT22;18965;52.242;20.886;2023-04-16T10:48:45;15.00;65.00
32524;DHT22;18965;52.242;20.886;2023-04-16T10:51:29;15.00;65.30
32524;DHT22;18965;52.242;20.886;2023-04-16T10:54:01;15.10;66.00
32524;DHT22;18965;52.242;20.886;2023-04-16T10:56:30;15.10;65.20
32524;DHT22;18965;52.242;20.886;2023-04-16T10:58:56;15.10;65.00
32524;DHT22;18965;52.242;20.886;2023-04-16T11:01:32;15.30;65.40
32524;DHT22;18965;52.242;20.886;2023-04-16T11:07:02;15.70;65.20
32524;DHT22;18965;52.242;20.886;2023-04-16T11:10:00;15.90;64.90
32524;DHT22;18965;52.242;20.886;2023-04-16T11:12:40;16.00;64.60
32524;DHT22;18965;52.242;20.886;2023-04-16T11:15:06;16.20;64.50
32524;DHT22;18965;52.242;20.886;2023-04-16T11:17:38;16.30;63.60
32524;DHT22;18965;52.242;20.886;2023-04-16T11:20:09;16.40;62.90
32524;DHT22;18965;52.242;20.886;2023-04-16T11:22:35;16.40;62.00
32524;DHT22;18965;52.242;20.886;2023-04-16T11:25:01;16.40;61.40
32524;DHT22;18965;52.242;20.886;2023-04-16T11:27:29;16.50;62.40
32524;DHT22;18965;52.242;20.886;2023-04-16T11:32:24;16.50;61.60
32524;DHT22;18965;52.242;20.886;2023-04-16T11:34:49;16.60;62.40
32524;DHT22;18965;52.242;20.886;2023-04-16T11:37:19;16.60;61.90
32524;DHT22;18965;52.242;20.886;2023-04-16T11:39:49;16.50;60.90
32524;DHT22;18965;52.242;20.886;2023-04-16T11:42:19;16.40;61.20
32524;DHT22;18965;52.242;20.886;2023-04-16T11:44:54;16.40;61.30
32524;DHT22;18965;52.242;20.886;2023-04-16T11:47:20;16.40;61.10
32524;DHT22;18965;52.242;20.886;2023-04-16T11:49:46;16.30;60.70
32524;DHT22;18965;52.242;20.886;2023-04-16T11:52:12;16.30;60.70
32524;DHT22;18965;52.242;20.886;2023-04-16T11:54:38;16.30;61.10
32524;DHT22;18965;52.242;20.886;2023-04-16T11:57:03;16.30;61.10
32524;DHT22;18965;52.242;20.886;2023-04-16T11:59:29;16.40;61.60
32524;DHT22;18965;52.242;20.886;2023-04-16T12:01:55;16.40;61.10
32524;DHT22;18965;52.242;20.886;2023-04-16T12:04:22;16.40;61.10
32524;DHT22;18965;52.242;20.886;2023-04-16T12:07:05;16.50;61.60
32524;DHT22;18965;52.242;20.886;2023-04-16T12:09:31;16.60;61.90
32524;DHT22;18965;52.242;20.886;2023-04-16T12:11:57;16.70;61.60
32524;DHT22;18965;52.242;20.886;2023-04-16T12:14:23;16.70;61.10
32524;DHT22;18965;52.242;20.886;2023-04-16T12:16:48;16.60;60.70
32524;DHT22;18965;52.242;20.886;2023-04-16T12:19:14;16.40;60.20
32524;DHT22;18965;52.242;20.886;2023-04-16T12:21:47;16.30;60.60
32524;DHT22;18965;52.242;20.886;2023-04-16T12:24:16;16.20;61.00
32524;DHT22;18965;52.242;20.886;2023-04-16T12:26:47;16.10;61.40
32524;DHT22;18965;52.242;20.886;2023-04-16T12:29:18;16.20;62.00
32524;DHT22;18965;52.242;20.886;2023-04-16T12:31:45;16.30;61.90
32524;DHT22;18965;52.242;20.886;2023-04-16T12:34:11;16.40;62.00
32524;DHT22;18965;52.242;20.886;2023-04-16T12:36:37;16.60;61.60
32524;DHT22;18965;52.242;20.886;2023-04-16T12:39:03;16.80;60.70
32524;DHT22;18965;52.242;20.886;2023-04-16T12:41:29;16.90;60.30
32524;DHT22;18965;52.242;20.886;2023-04-16T12:44:15;16.90;59.60
32524;DHT22;18965;52.242;20.886;2023-04-16T12:46:43;16.90;59.70
32524;DHT22;18965;52.242;20.886;2023-04-16T12:49:09;16.90;59.30
32524;DHT22;18965;52.242;20.886;2023-04-16T12:51:36;16.80;59.40
32524;DHT22;18965;52.242;20.886;2023-04-16T12:54:03;16.80;59.60
32524;DHT22;18965;52.242;20.886;2023-04-16T12:56:29;16.80;59.40
32524;DHT22;18965;52.242;20.886;2023-04-16T12:58:55;16.80;59.50
32524;DHT22;18965;52.242;20.886;2023-04-16T13:01:21;16.80;59.20
32524;DHT22;18965;52.242;20.886;2023-04-16T13:03:47;16.90;59.30
32524;DHT22;18965;52.242;20.886;2023-04-16T13:06:14;16.90;59.20
32524;DHT22;18965;52.242;20.886;2023-04-16T13:08:40;17.00;59.30
32524;DHT22;18965;52.242;20.886;2023-04-16T13:11:07;17.10;58.90
32524;DHT22;18965;52.242;20.886;2023-04-16T13:13:33;17.20;59.10
32524;DHT22;18965;52.242;20.886;2023-04-16T13:15:59;17.20;58.60
32524;DHT22;18965;52.242;20.886;2023-04-16T13:18:25;17.30;58.60
32524;DHT22;18965;52.242;20.886;2023-04-16T13:20:52;17.30;58.20
32524;DHT22;18965;52.242;20.886;2023-04-16T13:23:18;17.20;58.10
32524;DHT22;18965;52.242;20.886;2023-04-16T13:25:44;17.10;57.80
32524;DHT22;18965;52.242;20.886;2023-04-16T13:28:10;17.00;58.10
32524;DHT22;18965;52.242;20.886;2023-04-16T13:30:36;16.90;58.40
32524;DHT22;18965;52.242;20.886;2023-04-16T13:33:02;16.80;58.50
32524;DHT22;18965;52.242;20.886;2023-04-16T13:35:28;16.70;58.60
32524;DHT22;18965;52.242;20.886;2023-04-16T13:37:54;16.60;58.90
32524;DHT22;18965;52.242;20.886;2023-04-16T13:40:20;16.50;58.90
32524;DHT22;18965;52.242;20.886;2023-04-16T13:42:45;16.50;59.40
32524;DHT22;18965;52.242;20.886;2023-04-16T13:45:11;16.60;59.70
32524;DHT22;18965;52.242;20.886;2023-04-16T13:47:40;16.70;59.60
32524;DHT22;18965;52.242;20.886;2023-04-16T13:50:09;16.80;59.60
32524;DHT22;18965;52.242;20.886;2023-04-16T13:52:35;17.00;59.80
32524;DHT22;18965;52.242;20.886;2023-04-16T13:55:01;17.10;59.40
32524;DHT22;18965;52.242;20.886;2023-04-16T13:57:27;17.10;59.10
32524;DHT22;18965;52.242;20.886;2023-04-16T13:59:54;17.20;58.70
32524;DHT22;18965;52.242;20.886;2023-04-16T14:02:20;17.10;58.70
32524;DHT22;18965;52.242;20.886;2023-04-16T14:04:46;17.00;58.50
32524;DHT22;18965;52.242;20.886;2023-04-16T14:07:12;17.00;58.70
32524;DHT22;18965;52.242;20.886;2023-04-16T14:09:38;16.90;58.50
32524;DHT22;18965;52.242;20.886;2023-04-16T14:12:04;16.70;58.50
32524;DHT22;18965;52.242;20.886;2023-04-16T14:14:30;16.50;58.60
32524;DHT22;18965;52.242;20.886;2023-04-16T14:16:57;16.40;58.90
32524;DHT22;18965;52.242;20.886;2023-04-16T14:19:23;16.30;59.10
32524;DHT22;18965;52.242;20.886;2023-04-16T14:21:49;16.10;59.10
32524;DHT22;18965;52.242;20.886;2023-04-16T14:24:15;16.10;59.50
32524;DHT22;18965;52.242;20.886;2023-04-16T14:26:42;16.10;59.80
32524;DHT22;18965;52.242;20.886;2023-04-16T14:29:08;16.20;59.90
32524;DHT22;18965;52.242;20.886;2023-04-16T14:31:34;16.20;59.90
32524;DHT22;18965;52.242;20.886;2023-04-16T14:34:00;16.20;60.00
32524;DHT22;18965;52.242;20.886;2023-04-16T14:36:26;16.30;60.10
32524;DHT22;18965;52.242;20.886;2023-04-16T14:38:52;16.40;60.30
32524;DHT22;18965;52.242;20.886;2023-04-16T14:41:17;16.50;60.20
32524;DHT22;18965;52.242;20.886;2023-04-16T14:43:43;16.70;60.00
32524;DHT22;18965;52.242;20.886;2023-04-16T14:46:09;16.90;59.90
32524;DHT22;18965;52.242;20.886;2023-04-16T14:48:35;17.10;59.30
32524;DHT22;18965;52.242;20.886;2023-04-16T14:51:01;17.10;58.80
32524;DHT22;18965;52.242;20.886;2023-04-16T14:53:26;17.20;58.70
32524;DHT22;18965;52.242;20.886;2023-04-16T14:55:53;17.10;58.30
32524;DHT22;18965;52.242;20.886;2023-04-16T14:58:22;17.20;58.50
32524;DHT22;18965;52.242;20.886;2023-04-16T15:00:48;17.20;58.10
32524;DHT22;18965;52.242;20.886;2023-04-16T15:03:14;17.10;58.10
32524;DHT22;18965;52.242;20.886;2023-04-16T15:05:40;16.90;58.00
32524;DHT22;18965;52.242;20.886;2023-04-16T15:08:06;16.80;58.00
32524;DHT22;18965;52.242;20.886;2023-04-16T15:10:31;16.60;58.20
32524;DHT22;18965;52.242;20.886;2023-04-16T15:12:57;16.50;58.60
32524;DHT22;18965;52.242;20.886;2023-04-16T15:15:23;16.40;58.90
32524;DHT22;18965;52.242;20.886;2023-04-16T15:17:49;16.20;59.00
32524;DHT22;18965;52.242;20.886;2023-04-16T15:20:15;16.00;59.10
32524;DHT22;18965;52.242;20.886;2023-04-16T15:22:41;15.90;59.30
32524;DHT22;18965;52.242;20.886;2023-04-16T15:25:07;15.80;59.60